Time;durP1;ratioP1;P1;durP2;ratioP2;P2;SDS_P1;SDS_P2;PMS_P1;PMS_P2;Temp;Humidity;BMP_temperature;BMP_pressure;BME280_temperature;BME280_humidity;BME280_pressure;Samples;Min_cycle;Max_cycle;Signal;HPM_P1;HPM_P2
2021/12/13 00:00:31;;;;;;;;;;;;;;;9.24;95.69434;102449.2;;;;-83
2021/12/13 00:05:38;;;;;;;;;;;;;;;9.23;95.72559;102451.3;;;;-82
2021/12/13 00:10:36;;;;;;;;;;;;;;;9.2;95.71777;102451.2;;;;-82
2021/12/13 00:15:33;;;;;;;;;;;;;;;9.19;95.70508;102464.9;;;;-83
2021/12/13 00:20:36;;;;;;;;;;;;;;;9.17;95.67871;102459.7;;;;-82
2021/12/13 00:25:30;;;;;;;;;;;;;;;9.16;95.64355;102457.5;;;;-82
2021/12/13 00:29:58;;;;;;;12.1;2.6;;;;;;;;;;;;;-82
2021/12/13 00:30:34;;;;;;;;;;;;;;;9.14;95.57227;102459.6;;;;-83
2021/12/13 00:35:30;;;;;;;;;;;;;;;9.13;95.53906;102461.9;;;;-83
2021/12/13 00:40:33;;;;;;;;;;;;;;;9.11;95.49121;102459.2;;;;-83
2021/12/13 00:45:32;;;;;;;;;;;;;;;9.1;95.4541;102458;;;;-82
2021/12/13 00:50:29;;;;;;;;;;;;;;;9.09;95.39746;102460.9;;;;-81
2021/12/13 00:55:30;;;;;;;;;;;;;;;9.08;95.37305;102462.2;;;;-83
2021/12/13 01:00:03;;;;;;;12.4;2.5;;;;;;;;;;;;;-82
2021/12/13 01:00:40;;;;;;;;;;;;;;;9.05;95.35645;102464.4;;;;-83
2021/12/13 01:05:41;;;;;;;;;;;;;;;9.04;95.3418;102471.9;;;;-83
2021/12/13 01:10:42;;;;;;;;;;;;;;;9.02;95.2959;102476;;;;-82
2021/12/13 01:15:32;;;;;;;;;;;;;;;9.02;95.26074;102478.1;;;;-83
2021/12/13 01:20:44;;;;;;;;;;;;;;;9.01;95.30273;102489.7;;;;-83
2021/12/13 01:25:48;;;;;;;;;;;;;;;8.98;95.29688;102490.6;;;;-83
2021/12/13 01:30:02;;;;;;;7.1;1.4;;;;;;;;;;;;;-82
2021/12/13 01:30:38;;;;;;;;;;;;;;;8.94;95.21191;102487.2;;;;-83
2021/12/13 01:35:34;;;;;;;;;;;;;;;8.91;95.12891;102495.9;;;;-83
2021/12/13 01:40:33;;;;;;;;;;;;;;;8.89;95.04688;102494.9;;;;-82
2021/12/13 01:45:30;;;;;;;;;;;;;;;8.86;94.97461;102500.9;;;;-82
2021/12/13 01:50:43;;;;;;;;;;;;;;;8.83;94.9707;102502.5;;;;-83
2021/12/13 01:55:33;;;;;;;;;;;;;;;8.81;94.94336;102504.4;;;;-82
2021/12/13 01:59:56;;;;;;;4;1.2;;;;;;;;;;;;;-83
2021/12/13 02:00:43;;;;;;;;;;;;;;;8.78;94.87988;102506.1;;;;-83
2021/12/13 02:05:30;;;;;;;;;;;;;;;8.74;94.82813;102498.2;;;;-83
2021/12/13 02:10:30;;;;;;;;;;;;;;;8.72;94.81152;102488.4;;;;-83
2021/12/13 02:20:31;;;;;;;;;;;;;;;8.67;94.72461;102486.7;;;;-84
2021/12/13 02:25:32;;;;;;;;;;;;;;;8.65;94.68555;102488.8;;;;-83
2021/12/13 02:29:54;;;;;;;5;1.4;;;;;;;;;;;;;-87
2021/12/13 02:30:31;;;;;;;;;;;;;;;8.63;94.67285;102494.5;;;;-87
2021/12/13 02:35:31;;;;;;;;;;;;;;;8.62;94.625;102493.1;;;;-87
2021/12/13 02:40:30;;;;;;;;;;;;;;;8.6;94.62305;102499.4;;;;-84
2021/12/13 02:45:32;;;;;;;;;;;;;;;8.59;94.59766;102503.9;;;;-86
2021/12/13 02:50:35;;;;;;;;;;;;;;;8.57;94.68164;102508.8;;;;-86
2021/12/13 02:55:30;;;;;;;;;;;;;;;8.56;94.66797;102502.1;;;;-87
2021/12/13 02:59:55;;;;;;;5.7;2;;;;;;;;;;;;;-85
2021/12/13 03:00:37;;;;;;;;;;;;;;;8.55;94.66602;102506.1;;;;-86
2021/12/13 03:05:32;;;;;;;;;;;;;;;8.53;94.70605;102505.2;;;;-87
2021/12/13 03:10:30;;;;;;;;;;;;;;;8.53;94.69531;102510.4;;;;-85
2021/12/13 03:15:36;;;;;;;;;;;;;;;8.52;94.68262;102509.4;;;;-87
2021/12/13 03:20:41;;;;;;;;;;;;;;;8.5;94.71094;102500;;;;-86
2021/12/13 03:25:31;;;;;;;;;;;;;;;8.5;94.68945;102492.2;;;;-86
2021/12/13 03:29:58;;;;;;;8.6;2.8;;;;;;;;;;;;;-86
2021/12/13 03:30:39;;;;;;;;;;;;;;;8.49;94.74023;102495.8;;;;-87
2021/12/13 03:35:39;;;;;;;;;;;;;;;8.46;94.78906;102496.2;;;;-82
2021/12/13 03:40:33;;;;;;;;;;;;;;;8.46;94.7666;102499.3;;;;-83
2021/12/13 03:45:33;;;;;;;;;;;;;;;8.45;94.8291;102499.2;;;;-83
2021/12/13 03:50:30;;;;;;;;;;;;;;;8.44;94.8291;102500.1;;;;-84
2021/12/13 03:55:32;;;;;;;;;;;;;;;8.43;94.78125;102491.7;;;;-83
2021/12/13 03:59:56;;;;;;;9.4;2.9;;;;;;;;;;;;;-81
2021/12/13 04:00:32;;;;;;;;;;;;;;;8.41;94.81152;102486.3;;;;-84
2021/12/13 04:05:31;;;;;;;;;;;;;;;8.41;94.74609;102484.8;;;;-83
2021/12/13 04:10:32;;;;;;;;;;;;;;;8.4;94.74219;102479.9;;;;-84
2021/12/13 04:15:46;;;;;;;;;;;;;;;8.38;94.74023;102471.8;;;;-84
2021/12/13 04:20:30;;;;;;;;;;;;;;;8.37;94.76953;102478.3;;;;-83
2021/12/13 04:25:30;;;;;;;;;;;;;;;8.37;94.75781;102480.7;;;;-83
2021/12/13 04:29:54;;;;;;;9;4.1;;;;;;;;;;;;;-83
2021/12/13 04:30:39;;;;;;;;;;;;;;;8.35;94.79785;102492.8;;;;-82
2021/12/13 04:35:31;;;;;;;;;;;;;;;8.35;94.80762;102490.8;;;;-83
2021/12/13 04:40:31;;;;;;;;;;;;;;;8.34;94.87305;102490.1;;;;-82
2021/12/13 04:45:33;;;;;;;;;;;;;;;8.32;94.83594;102488.3;;;;-81
2021/12/13 04:50:34;;;;;;;;;;;;;;;8.32;94.93262;102489.2;;;;-83
2021/12/13 04:55:35;;;;;;;;;;;;;;;8.31;94.88867;102485.5;;;;-83
2021/12/13 05:00:01;;;;;;;11.1;5.5;;;;;;;;;;;;;-81
2021/12/13 05:00:30;;;;;;;;;;;;;;;8.32;94.7793;102489;;;;-84
2021/12/13 05:05:32;;;;;;;;;;;;;;;8.3;94.85449;102491.2;;;;-83
2021/12/13 05:10:36;;;;;;;;;;;;;;;8.29;94.90723;102501.4;;;;-83
2021/12/13 05:15:33;;;;;;;;;;;;;;;8.3;94.87402;102509.2;;;;-82
2021/12/13 05:20:31;;;;;;;;;;;;;;;8.29;94.78418;102506.7;;;;-84
2021/12/13 05:25:33;;;;;;;;;;;;;;;8.29;94.74023;102510.2;;;;-83
2021/12/13 05:30:04;;;;;;;15.8;6.9;;;;;;;;;;;;;-83
2021/12/13 05:30:28;;;;;;;;;;;;;;;8.28;94.78223;102505.3;;;;-84
2021/12/13 05:35:34;;;;;;;;;;;;;;;8.28;94.75;102512.2;;;;-82
2021/12/13 05:40:30;;;;;;;;;;;;;;;8.28;94.66211;102508.1;;;;-84
2021/12/13 05:45:41;;;;;;;;;;;;;;;8.26;94.71289;102508.5;;;;-82
2021/12/13 05:50:36;;;;;;;;;;;;;;;8.26;94.67969;102514.1;;;;-83
2021/12/13 05:55:32;;;;;;;;;;;;;;;8.25;94.70898;102517.5;;;;-84
2021/12/13 06:00:06;;;;;;;13.9;7.1;;;;;;;;;;;;;-82
2021/12/13 06:00:36;;;;;;;;;;;;;;;8.22;94.62793;102518.1;;;;-83
2021/12/13 06:05:31;;;;;;;;;;;;;;;8.23;94.56641;102517.8;;;;-83
2021/12/13 06:10:33;;;;;;;;;;;;;;;8.22;94.59473;102518;;;;-83
2021/12/13 06:15:35;;;;;;;;;;;;;;;8.22;94.56055;102526.9;;;;-83
2021/12/13 06:20:33;;;;;;;;;;;;;;;8.21;94.5498;102523.5;;;;-83
2021/12/13 06:25:28;;;;;;;;;;;;;;;8.21;94.52539;102522.2;;;;-85
2021/12/13 06:30:10;;;;;;;13.8;7.2;;;;;;;;;;;;;-87
2021/12/13 06:30:30;;;;;;;;;;;;;;;8.19;94.5127;102522.1;;;;-85
2021/12/13 06:35:46;;;;;;;;;;;;;;;8.18;94.48828;102528.1;;;;-84
2021/12/13 06:40:38;;;;;;;;;;;;;;;8.18;94.4541;102529.2;;;;-83
2021/12/13 06:45:32;;;;;;;;;;;;;;;8.17;94.41895;102533.2;;;;-82
2021/12/13 06:50:40;;;;;;;;;;;;;;;;;;;;;
2021/12/13 06:55:31;;;;;;;;;;;;;;;8.15;94.39258;102536.9;;;;-83
2021/12/13 06:59:59;;;;;;;13.6;6.8;;;;;;;;;;;;;-82
2021/12/13 07:00:37;;;;;;;;;;;;;;;8.15;94.33887;102547.6;;;;-82
2021/12/13 07:05:40;;;;;;;;;;;;;;;8.14;94.31445;102546.3;;;;-84
2021/12/13 07:10:34;;;;;;;;;;;;;;;8.14;94.28125;102548.5;;;;-82
2021/12/13 07:15:45;;;;;;;;;;;;;;;8.12;94.16797;102548.7;;;;-83
2021/12/13 07:20:37;;;;;;;;;;;;;;;8.11;94.18652;102549.2;;;;-83
2021/12/13 07:25:28;;;;;;;;;;;;;;;8.1;94.14063;102554.4;;;;-84
2021/12/13 07:29:57;;;;;;;12.8;6.8;;;;;;;;;;;;;-83
2021/12/13 07:30:33;;;;;;;;;;;;;;;8.08;94.13867;102569.8;;;;-83
2021/12/13 07:35:46;;;;;;;;;;;;;;;8.06;94.06836;102566.8;;;;-82
2021/12/13 07:40:37;;;;;;;;;;;;;;;8.05;94.03223;102573.7;;;;-82
2021/12/13 07:45:34;;;;;;;;;;;;;;;8.04;94.13965;102579.4;;;;-82
2021/12/13 07:50:32;;;;;;;;;;;;;;;8.04;94.12891;102582.4;;;;-83
2021/12/13 07:55:32;;;;;;;;;;;;;;;8.03;94.15918;102579.3;;;;-83
2021/12/13 07:59:52;;;;;;;11.2;5.9;;;;;;;;;;;;;-82
2021/12/13 08:00:38;;;;;;;;;;;;;;;8.04;94.0957;102589.1;;;;-83
2021/12/13 08:05:37;;;;;;;;;;;;;;;8.04;94.0625;102592.5;;;;-84
2021/12/13 08:10:35;;;;;;;;;;;;;;;8.05;94.05371;102599;;;;-83
2021/12/13 08:15:34;;;;;;;;;;;;;;;8.05;94.05566;102596.7;;;;-83
2021/12/13 08:25:29;;;;;;;;;;;;;;;8.05;94.04492;102602.4;;;;-83
2021/12/13 08:29:52;;;;;;;12.7;5.9;;;;;;;;;;;;;-84
2021/12/13 08:30:30;;;;;;;;;;;;;;;8.06;94.03613;102608.9;;;;-84
2021/12/13 08:35:44;;;;;;;;;;;;;;;8.06;93.99023;102616.3;;;;-84
2021/12/13 08:40:30;;;;;;;;;;;;;;;8.07;94.03613;102618.4;;;;-84
2021/12/13 08:45:32;;;;;;;;;;;;;;;8.08;94.03809;102622;;;;-83
2021/12/13 08:50:31;;;;;;;;;;;;;;;8.1;93.99805;102629;;;;-85
2021/12/13 08:55:32;;;;;;;;;;;;;;;8.12;93.99121;102634.6;;;;-83
2021/12/13 08:59:59;;;;;;;11.9;6.7;;;;;;;;;;;;;-81
2021/12/13 09:05:31;;;;;;;;;;;;;;;8.14;93.94238;102633.4;;;;-83
2021/12/13 09:10:45;;;;;;;;;;;;;;;8.16;93.89258;102640;;;;-83
2021/12/13 09:15:34;;;;;;;;;;;;;;;8.18;93.86426;102648.8;;;;-83
2021/12/13 09:20:47;;;;;;;;;;;;;;;8.22;93.84766;102664.9;;;;-82
2021/12/13 09:25:40;;;;;;;;;;;;;;;8.25;93.73535;102675.1;;;;-84
2021/12/13 09:30:51;;;;;;;;;;;;;;;8.28;93.70996;102679.6;;;;-83
2021/12/13 09:35:41;;;;;;;;;;;;;;;8.31;93.71387;102686.5;;;;-84
2021/12/13 09:40:46;;;;;;;;;;;;;;;8.34;93.59082;102696.6;;;;-83
2021/12/13 09:45:31;;;;;;;;;;;;;;;8.36;93.50879;102695;;;;-83
2021/12/13 09:50:35;;;;;;;;;;;;;;;8.38;93.55469;102687;;;;-83
2021/12/13 09:55:34;;;;;;;;;;;;;;;8.42;93.47461;102692;;;;-83
2021/12/13 09:59:56;;;;;;;17.2;8.6;;;;;;;;;;;;;-82
2021/12/13 10:00:43;;;;;;;;;;;;;;;8.47;93.39844;102692.4;;;;-82
2021/12/13 10:05:36;;;;;;;;;;;;;;;8.52;93.29785;102696.7;;;;-85
2021/12/13 10:11:47;;;;;;;;;;;;;;;8.58;93.1582;102691.6;;;;-83
2021/12/13 10:16:42;;;;;;;;;;;;;;;8.63;93.05176;102692.4;;;;-83
2021/12/13 10:25:52;;;;;;;;;;;;;;;8.71;92.90234;102693.7;;;;-83
2021/12/13 10:30:16;;;;;;;19.5;9.6;;;;;;;;;;;;;-83
2021/12/13 10:35:52;;;;;;;;;;;;;;;8.82;92.81543;102691.3;;;;-84
2021/12/13 10:50:48;;;;;;;;;;;;;;;;;;;;;
2021/12/13 10:56:02;;;;;;;;;;;;;;;8.99;92.41113;102690.3;;;;-83
2021/12/13 11:08:05;;;;;;;;;;;;;;;9.06;91.84473;102681;;;;-84
2021/12/13 11:17:47;;;;;;;;;;;;;;;9.19;91.80566;102694.8;;;;-86
2021/12/13 11:44:00;;;;;;;;;;;;;;;9.38;91;102695.5;;;;-86
2021/12/13 11:48:53;;;;;;;;;;;;;;;9.42;91.03906;102695.2;;;;-85
2021/12/13 11:53:53;;;;;;;;;;;;;;;9.44;91.04492;102692.2;;;;-86
2021/12/13 11:59:04;;;;;;;;;;;;;;;9.48;90.96582;102690.3;;;;-87
2021/12/13 12:00:09;;;;;;;15.3;7.2;;;;;;;;;;;;;-86
2021/12/13 12:12:04;;;;;;;;;;;;;;;9.55;90.57422;102680.6;;;;-84
2021/12/13 12:21:29;;;;;;;;;;;;;;;9.67;90.46484;102679.2;;;;-83
2021/12/13 12:26:13;;;;;;;;;;;;;;;9.82;90.15527;102676.2;;;;-83
2021/12/13 12:31:15;;;;;;;;;;;;;;;9.95;89.90625;102668.8;;;;-83
2021/12/13 12:36:17;;;;;;;;;;;;;;;9.97;89.75586;102663.4;;;;-82
2021/12/13 13:09:03;;;;;;;;;;;;;;;10.03;89.53711;102668.2;;;;-83
2021/12/13 13:14:10;;;;;;;;;;;;;;;;;;;;;
2021/12/13 13:22:11;;;;;;;;;;;;;;;10.04;89.45996;102668.8;;;;-84
2021/12/13 13:27:23;;;;;;;;;;;;;;;10.02;89.44531;102667.1;;;;-83
2021/12/13 14:05:31;;;;;;;;;;;;;;;9.98;89.73535;102663.6;;;;-84
2021/12/13 14:10:31;;;;;;;;;;;;;;;9.96;89.77637;102668.8;;;;-83
2021/12/13 14:15:31;;;;;;;;;;;;;;;9.95;89.97266;102665.2;;;;-84
2021/12/13 14:20:51;;;;;;;;;;;;;;;9.92;90.28418;102668.3;;;;-82
2021/12/13 14:30:57;;;;;;;;;;;;;;;9.83;90.54297;102666.7;;;;-86
2021/12/13 14:45:59;;;;;;;;;;;;;;;9.72;90.95898;102677.5;;;;-85
2021/12/13 14:50:54;;;;;;;;;;;;;;;9.66;90.82617;102686.6;;;;-85
2021/12/13 15:01:05;;;;;;;;;;;;;;;9.56;91.00293;102692.6;;;;-86
2021/12/13 15:06:03;;;;;;;;;;;;;;;9.52;91.12598;102701.5;;;;-86
2021/12/13 15:13:33;;;;;;;;;;;;;;;9.44;91.33105;102698.8;;;;-86
2021/12/13 15:18:38;;;;;;;;;;;;;;;9.39;91.2207;102697.9;;;;-85
2021/12/13 15:23:30;;;;;;;;;;;;;;;9.36;91.40137;102692.4;;;;-84
2021/12/13 15:29:13;;;;;;;;;;;;;;;9.33;91.5166;102687.7;;;;-85
2021/12/13 15:30:13;;;;;;;17.3;8.2;;;;;;;;;;;;;-85
2021/12/13 15:37:35;;;;;;;;;;;;;;;9.25;91.45605;102685.4;;;;-86
2021/12/13 15:51:23;;;;;;;;;;;;;;;9.17;91.63672;102685;;;;-82
2021/12/13 15:58:15;;;;;;;;;;;;;;;9.12;91.625;102683;;;;-83
2021/12/13 16:07:30;;;;;;;;;;;;;;;9.04;91.54395;102681.6;;;;-83
2021/12/13 16:29:26;;;;;;;;;;;;;;;;;;;;;
2021/12/13 17:53:28;;;;;;;;;;;;;;;8.48;91.95215;102676.8;;;;-84
2021/12/13 17:58:17;;;;;;;;;;;;;;;8.46;91.95996;102679.7;;;;-85
2021/12/13 18:00:10;;;;;;;15;7.5;;;;;;;;;;;;;-83
2021/12/13 18:03:21;;;;;;;;;;;;;;;8.45;92.0127;102684.5;;;;-84
2021/12/13 18:10:34;;;;;;;;;;;;;;;8.43;91.99609;102688.9;;;;-85
2021/12/13 18:22:21;;;;;;;;;;;;;;;8.4;92.00293;102689.8;;;;-78
2021/12/13 18:27:11;;;;;;;;;;;;;;;8.39;91.96777;102692.8;;;;-86
2021/12/13 18:29:57;;;;;;;18.9;8;;;;;;;;;;;;;-86
2021/12/13 18:37:37;;;;;;;;;;;;;;;8.36;92.02637;102695.2;;;;-85
2021/12/13 18:51:09;;;;;;;;;;;;;;;8.32;92.0166;102700.8;;;;-85
2021/12/13 18:56:07;;;;;;;;;;;;;;;8.3;92.03613;102697.8;;;;-84
2021/12/13 19:01:00;;;;;;;;;;;;;;;8.29;92.05469;102692.7;;;;-85
2021/12/13 19:06:17;;;;;;;;;;;;;;;;;;;;;
2021/12/13 19:11:08;;;;;;;;;;;;;;;8.26;92.06152;102699;;;;-85
2021/12/13 19:16:16;;;;;;;;;;;;;;;8.25;92.1123;102701.3;;;;-87
2021/12/13 19:21:08;;;;;;;;;;;;;;;8.25;92.09961;102696.2;;;;-85
2021/12/13 19:26:02;;;;;;;;;;;;;;;8.23;92.18555;102699.8;;;;-84
2021/12/13 19:30:18;;;;;;;17;7.5;;;;;;;;;;;;;-84
2021/12/13 19:36:04;;;;;;;;;;;;;;;8.2;92.24609;102695.5;;;;-85
2021/12/13 19:46:04;;;;;;;;;;;;;;;8.19;92.18652;102686;;;;-85
2021/12/13 19:51:02;;;;;;;;;;;;;;;8.17;92.19434;102680.4;;;;-83
2021/12/13 19:55:22;;;;;;;;;;;;;;;8.17;92.25977;102682.5;;;;-84
2021/12/13 20:05:45;;;;;;;;;;;;;;;8.15;92.14648;102670.2;;;;-84
2021/12/13 20:13:19;;;;;;;;;;;;;;;8.14;92.11133;102663.6;;;;-83
2021/12/13 20:28:24;;;;;;;;;;;;;;;8.12;92.0293;102681.7;;;;-85
2021/12/13 20:30:03;;;;;;;16.8;7.7;;;;;;;;;;;;;-85
2021/12/13 20:33:14;;;;;;;;;;;;;;;8.1;92.05957;102681.1;;;;-84
2021/12/13 20:38:14;;;;;;;;;;;;;;;8.08;92.05664;102680.6;;;;-84
2021/12/13 20:48:20;;;;;;;;;;;;;;;8.08;91.93359;102683.3;;;;-84
2021/12/13 21:00:08;;;;;;;16.7;7.7;;;;;;;;;;;;;-85
2021/12/13 21:02:59;;;;;;;;;;;;;;;8.04;91.7832;102676.3;;;;-85
2021/12/13 21:08:13;;;;;;;;;;;;;;;8.04;91.77246;102684.9;;;;-81
2021/12/13 21:12:58;;;;;;;;;;;;;;;8.02;91.74512;102687;;;;-84
2021/12/13 21:17:59;;;;;;;;;;;;;;;8.01;91.7334;102684.6;;;;-85
2021/12/13 21:22:55;;;;;;;;;;;;;;;8;91.74316;102668.1;;;;-86
2021/12/13 21:27:57;;;;;;;;;;;;;;;7.99;91.7832;102664.9;;;;-85
2021/12/13 21:29:52;;;;;;;15.8;7.4;;;;;;;;;;;;;-85
2021/12/13 21:33:18;;;;;;;;;;;;;;;7.98;91.66211;102661.6;;;;-88
2021/12/13 21:42:56;;;;;;;;;;;;;;;7.96;91.55957;102667.5;;;;-84
2021/12/13 21:47:58;;;;;;;;;;;;;;;7.97;91.50488;102666.2;;;;-84
2021/12/13 21:52:53;;;;;;;;;;;;;;;7.96;91.4043;102671.6;;;;-84
2021/12/13 21:57:56;;;;;;;;;;;;;;;7.94;91.51074;102673.4;;;;-84
2021/12/13 21:59:55;;;;;;;16.4;6.9;;;;;;;;;;;;;-86
2021/12/13 22:02:53;;;;;;;;;;;;;;;7.94;91.45508;102681.6;;;;-85
2021/12/13 22:07:53;;;;;;;;;;;;;;;7.93;91.2998;102675.7;;;;-85
2021/12/13 22:13:02;;;;;;;;;;;;;;;7.92;91.11035;102669.5;;;;-84
2021/12/13 22:18:00;;;;;;;;;;;;;;;7.91;91.27441;102673.3;;;;-86
2021/12/13 22:23:01;;;;;;;;;;;;;;;7.91;91.3623;102679;;;;-85
2021/12/13 22:26:09;;;;;;;;;;;;;;;7.9;91.19531;102677.7;;;;-86
2021/12/13 22:29:52;;;;;;;15.5;7.2;;;;;;;;;;;;;-86
2021/12/13 22:31:12;;;;;;;;;;;;;;;7.89;91.2373;102680.8;;;;-86
2021/12/13 22:36:38;;;;;;;;;;;;;;;7.89;91.20508;102686.9;;;;-87
2021/12/13 22:41:13;;;;;;;;;;;;;;;7.88;91.19238;102683.9;;;;-85
2021/12/13 22:46:24;;;;;;;;;;;;;;;7.87;91.22266;102673.5;;;;-84
2021/12/13 22:54:10;;;;;;;;;;;;;;;7.86;91.19727;102662.7;;;;-84
2021/12/13 22:59:17;;;;;;;;;;;;;;;7.84;91.10547;102651;;;;-85
2021/12/13 22:59:50;;;;;;;15.6;7.5;;;;;;;;;;;;;-86
2021/12/13 23:04:20;;;;;;;;;;;;;;;7.85;91.20605;102648.5;;;;-84
2021/12/13 23:09:22;;;;;;;;;;;;;;;7.84;91.19336;102650.9;;;;-84
2021/12/13 23:14:04;;;;;;;;;;;;;;;7.83;91.09277;102649;;;;-85
2021/12/13 23:19:11;;;;;;;;;;;;;;;7.84;91.18262;102656.2;;;;-86
2021/12/13 23:24:05;;;;;;;;;;;;;;;7.82;91.1543;102654.1;;;;-85
2021/12/13 23:29:23;;;;;;;;;;;;;;;7.82;91.17676;102653.4;;;;-85
2021/12/13 23:30:02;;;;;;;14.8;7.9;;;;;;;;;;;;;-85
2021/12/13 23:34:11;;;;;;;;;;;;;;;7.82;91.15625;102658.6;;;;-86
2021/12/13 23:49:14;;;;;;;;;;;;;;;7.81;91.13281;102670.7;;;;-86
2021/12/13 23:54:32;;;;;;;;;;;;;;;7.8;91.11816;102672.3;;;;-86
2021/12/13 23:59:15;;;;;;;;;;;;;;;7.79;91.15137;102671.7;;;;-88
2021/12/13 23:59:53;;;;;;;17.8;8.5;;;;;;;;;;;;;-87
